Latest Weather Observations for Kingscote

IDS60801

Issued at 1:35 pm CST Thursday 17 April 2014 (issued every 30 minutes, with the page automatically refreshed every 10 minutes)

About weather observations | Map of weather stations | Latest weather observations for SA | Other Formats
Station Details ID: 022841 Name: KINGSCOTE AERO Lat: -35.71 Lon: 137.52 Height: 6.23 m
Data from the previous 72 hours. | See also: Recent months at Kingscote
Date/Time
CST
Temp
°C
App
Temp
°C
Dew
Point
Rel
Hum
%
Delta-T
°C
Wind Press
QNH
hPa
Press
MSL
hPa
Rain
since 9 am
mm
Dir
 
Spd
km/h
Gust
km/h
Spd
kts
Gust
kts
17/01:30pm 22.8 19.8 13.6 56 5.3 NW 22 32 12 17 1019.2 - 0.0
17/01:00pm 22.0 19.6 14.4 62 4.4 NW 20 30 11 16 1019.5 - 0.0
17/12:30pm 22.5 20.0 15.1 63 4.4 NW 22 32 12 17 1020.1 - 0.0
17/12:00pm 22.1 20.7 15.5 66 3.9 NNW 17 26 9 14 1020.4 1020.4 0.0
17/11:30am 20.5 20.1 16.1 76 2.6 NW 13 20 7 11 1021.0 - 0.0
17/11:00am 20.6 20.1 16.8 79 2.3 W 15 19 8 10 1021.3 - 0.0
17/10:30am 19.8 19.3 16.8 83 1.8 NNW 15 24 8 13 1021.3 - 0.0
17/10:00am 19.6 20.5 17.6 88 1.2 NNW 9 13 5 7 1021.5 - 0.0
17/09:30am 17.1 19.5 16.9 99 0.1 CALM 0 0 0 0 1021.4 - 0.0
17/09:00am 13.5 14.6 13.5 100 0.0 CALM 0 0 0 0 1021.4 1021.4 0.0
17/08:30am 11.7 12.2 11.7 100 0.0 CALM 0 0 0 0 1021.3 - 0.0
17/08:00am 10.4 10.6 10.4 100 0.0 CALM 0 0 0 0 1021.1 - 0.0
17/07:38am 8.7 8.4 8.7 100 0.0 CALM 0 0 0 0 1020.8 - 0.0
17/07:30am 7.4 6.8 7.4 100 0.0 CALM 0 0 0 0 1020.7 - 0.0
17/07:00am 6.5 5.7 6.5 100 0.0 CALM 0 0 0 0 1020.3 - 0.0
17/06:30am 6.5 5.7 6.5 100 0.0 CALM 0 0 0 0 1020.2 - 0.0
17/06:00am 7.6 7.0 7.6 100 0.0 WSW 0 0 0 0 1020.2 1020.2 0.0
17/05:30am 7.7 7.2 7.7 100 0.0 CALM 0 0 0 0 1020.0 - 0.0
17/05:00am 7.7 7.2 7.7 100 0.0 WSW 0 0 0 0 1020.2 - 0.0
17/04:37am 8.6 8.3 8.6 100 0.0 CALM 0 0 0 0 1020.1 - 0.0
17/04:30am 9.0 8.8 9.0 100 0.0 CALM 0 0 0 0 1020.1 - 0.0
17/04:00am 8.7 8.4 8.7 100 0.0 CALM 0 0 0 0 1019.9 - 0.0
17/03:30am 8.8 8.5 8.8 100 0.0 CALM 0 0 0 0 1019.8 - 0.0
17/03:00am 9.2 9.0 9.2 100 0.0 CALM 0 0 0 0 1019.7 1019.7 0.0
17/02:30am 10.0 10.1 10.0 100 0.0 CALM 0 0 0 0 1019.8 - 0.0
17/02:00am 9.7 8.3 9.7 100 0.0 WSW 7 9 4 5 1020.1 - 0.0
17/01:30am 11.4 10.5 11.4 100 0.0 W 7 9 4 5 1020.0 - 0.0
17/01:00am 12.1 12.0 12.1 100 0.0 WNW 4 9 2 5 1020.0 - 0.0
17/12:58am 12.3 12.6 12.3 100 0.0 NW 2 9 1 5 1020.0 - 0.0
17/12:30am 13.1 13.7 13.1 100 0.0 NNW 2 6 1 3 1020.1 - 0.0
17/12:00am 13.5 12.9 13.5 100 0.0 WSW 9 11 5 6 1020.0 1020.0 0.0
 
Date/Time
CST
Temp
°C
App
Temp
°C
Dew
Point
Rel
Hum
%
Delta-T
°C
Wind Press
QNH
hPa
Press
MSL
hPa
Rain
since 9 am
mm
Dir
 
Spd
km/h
Gust
km/h
Spd
kts
Gust
kts
16/11:30pm 12.5 11.5 12.3 99 0.1 SW 9 9 5 5 1020.2 - 0.0
16/11:00pm 14.0 15.2 13.8 99 0.1 CALM 0 0 0 0 1020.2 - 0.0
16/10:30pm 14.5 14.7 14.3 99 0.1 WNW 6 9 3 5 1020.2 - 0.0
16/10:00pm 15.2 16.8 15.0 99 0.1 CALM 0 0 0 0 1020.3 - 0.0
16/09:30pm 14.8 16.3 14.6 99 0.1 CALM 0 0 0 0 1020.1 - 0.0
16/09:00pm 14.8 16.3 14.6 99 0.1 CALM 0 0 0 0 1020.0 1020.0 0.0
16/08:30pm 14.8 16.3 14.6 99 0.1 CALM 0 0 0 0 1019.9 - 0.0
16/08:00pm 15.5 15.9 15.3 99 0.1 W 7 9 4 5 1019.7 - 0.0
16/07:30pm 15.9 15.4 14.8 93 0.6 W 11 11 6 6 1019.6 - 0.0
16/07:00pm 16.6 15.4 13.9 84 1.5 W 13 17 7 9 1019.5 - 0.0
16/06:30pm 16.3 14.7 11.5 73 2.6 NW 11 13 6 7 1019.0 - 0.0
16/06:00pm 19.0 18.0 12.3 65 3.7 NNW 9 13 5 7 1018.7 1018.7 0.0
16/05:30pm 20.2 18.2 12.7 62 4.2 WNW 15 19 8 10 1018.6 - 0.0
16/05:00pm 20.1 17.6 12.3 61 4.4 WNW 17 22 9 12 1018.5 - 0.0
16/04:30pm 20.7 17.6 12.1 58 4.8 WNW 20 26 11 14 1018.5 - 0.0
16/04:00pm 21.7 17.9 12.3 55 5.3 W 24 30 13 16 1018.3 - 0.0
16/03:30pm 22.2 18.7 12.2 53 5.6 WNW 22 32 12 17 1018.3 - 0.0
16/03:00pm 23.2 20.2 12.5 51 6.1 W 20 30 11 16 1018.3 1018.3 0.0
16/02:30pm 23.6 19.9 11.6 47 6.8 NW 22 33 12 18 1018.4 - 0.0
16/02:00pm 21.9 18.5 11.3 51 5.9 WNW 20 30 11 16 1018.4 - 0.0
16/01:30pm 22.4 18.9 12.1 52 5.8 WNW 22 30 12 16 1018.7 - 0.0
16/01:00pm 22.1 18.9 11.8 52 5.8 WNW 20 26 11 14 1019.2 - 0.0
16/12:30pm 23.5 20.6 12.8 51 6.1 WNW 20 28 11 15 1019.3 - 0.0
16/12:00pm 21.2 17.5 11.5 54 5.4 NW 22 28 12 15 1019.5 1019.5 0.0
16/11:30am 21.2 18.6 13.1 60 4.6 NW 19 26 10 14 1019.7 - 0.0
16/11:00am 21.1 18.9 14.3 65 4.0 NNW 19 24 10 13 1019.8 - 0.0
16/10:30am 19.6 18.2 15.5 77 2.4 N 17 22 9 12 1019.8 - 0.0
16/10:00am 19.4 19.0 17.2 87 1.3 NNW 15 19 8 10 1020.4 - 0.0
16/09:30am 18.8 21.9 18.6 99 0.1 CALM 0 2 0 1 1020.6 - 0.0
16/09:00am 14.6 16.1 14.6 100 0.0 CALM 0 0 0 0 1020.8 1020.8 0.0
16/08:30am 10.9 10.1 10.9 100 0.0 SSW 6 7 3 4 1020.6 - 0.0
16/08:00am 8.7 8.4 8.7 100 0.0 CALM 0 0 0 0 1020.2 - 0.0
16/07:30am 7.7 7.2 7.7 100 0.0 CALM 0 0 0 0 1020.3 - 0.0
16/07:00am 6.2 5.3 6.2 100 0.0 CALM 0 0 0 0 1019.9 - 0.0
16/06:30am 6.0 5.1 6.0 100 0.0 CALM 0 0 0 0 1019.8 - 0.0
16/06:00am 6.7 5.9 6.7 100 0.0 CALM 0 0 0 0 1019.9 1019.9 0.0
16/05:30am 6.8 6.1 6.8 100 0.0 CALM 0 0 0 0 1020.1 - 0.0
16/05:00am 7.2 6.6 7.2 100 0.0 CALM 0 0 0 0 1020.5 - 0.0
16/04:30am 6.7 4.2 6.7 100 0.0 WSW 9 11 5 6 1020.8 - 0.0
16/04:16am 6.5 4.0 6.5 100 0.0 WSW 9 11 5 6 1020.5 - 0.0
16/04:00am 5.7 3.4 5.7 100 0.0 WSW 7 11 4 6 1020.4 - 0.0
16/03:47am 7.4 6.0 7.4 100 0.0 WSW 4 6 2 3 1020.0 - 0.0
16/03:30am 6.7 4.6 6.7 100 0.0 WSW 7 9 4 5 1020.2 - 0.0
16/03:00am 6.9 5.0 6.9 100 0.0 W 6 7 3 4 1020.4 1020.4 0.0
16/02:30am 7.5 5.6 7.5 100 0.0 W 7 11 4 6 1020.8 - 0.0
16/02:00am 7.9 6.3 7.9 100 0.0 W 6 7 3 4 1021.2 - 0.0
16/01:30am 7.4 5.5 7.4 100 0.0 W 7 7 4 4 1021.6 - 0.0
16/01:00am 7.3 5.3 7.3 100 0.0 W 7 9 4 5 1021.9 - 0.0
16/12:30am 8.2 6.5 8.2 100 0.0 WSW 7 9 4 5 1022.1 - 0.0
16/12:00am 8.8 7.4 8.8 100 0.0 SSW 6 7 3 4 1022.4 1022.4 0.0
 
Date/Time
CST
Temp
°C
App
Temp
°C
Dew
Point
Rel
Hum
%
Delta-T
°C
Wind Press
QNH
hPa
Press
MSL
hPa
Rain
since 9 am
mm
Dir
 
Spd
km/h
Gust
km/h
Spd
kts
Gust
kts
15/11:30pm 8.7 6.3 8.7 100 0.0 WSW 11 15 6 8 1022.5 - 0.0
15/11:00pm 8.1 7.7 8.1 100 0.0 CALM 0 0 0 0 1022.6 - 0.0
15/10:30pm 8.6 7.1 8.6 100 0.0 SW 6 7 3 4 1022.4 - 0.0
15/10:00pm 9.5 8.3 9.5 100 0.0 SW 6 7 3 4 1022.4 - 0.0
15/09:30pm 9.9 9.5 9.8 99 0.1 W 2 7 1 4 1022.6 - 0.0
15/09:00pm 11.0 10.1 10.8 99 0.1 NNW 6 7 3 4 1022.7 1022.7 0.0
15/08:30pm 10.8 9.7 10.6 99 0.1 W 7 9 4 5 1022.7 - 0.0
15/08:00pm 11.8 11.2 11.6 99 0.1 SSW 6 7 3 4 1022.8 - 0.0
15/07:30pm 13.2 13.4 13.0 99 0.1 SSE 4 7 2 4 1022.7 - 0.0
15/07:00pm 13.9 13.2 13.3 96 0.3 SE 9 13 5 7 1022.7 - 0.0
15/06:30pm 14.6 13.5 13.0 90 0.9 SE 11 15 6 8 1022.5 - 0.0
15/06:00pm 16.0 14.1 12.9 82 1.7 SE 15 20 8 11 1022.3 1022.3 0.0
15/05:30pm 17.3 14.6 13.0 76 2.4 SE 19 24 10 13 1021.9 - 0.0
15/05:00pm 18.7 15.7 12.7 68 3.4 SE 20 26 11 14 1022.1 - 0.0
15/04:30pm 19.7 17.0 12.9 65 3.8 ESE 19 24 10 13 1022.1 - 0.0
15/04:00pm 20.2 18.0 13.2 64 4.0 E 17 22 9 12 1022.2 - 0.0
15/03:30pm 20.0 17.5 11.0 56 4.9 E 15 20 8 11 1022.6 - 0.0
15/03:00pm 21.4 19.0 12.5 57 5.0 ENE 17 26 9 14 1022.2 1022.2 0.0
15/02:30pm 21.0 18.6 12.7 59 4.7 ENE 17 30 9 16 1021.9 - 0.0
15/02:00pm 21.3 19.6 13.5 61 4.5 ENE 15 24 8 13 1022.0 - 0.0
15/01:30pm 21.4 19.8 13.8 62 4.4 ENE 15 24 8 13 1022.3 - 0.0
15/01:00pm 21.2 19.1 13.6 62 4.4 E 17 26 9 14 1022.8 - 0.0
15/12:30pm 20.4 17.9 13.4 64 4.0 ENE 19 26 10 14 1023.0 - 0.0
15/12:00pm 20.8 18.4 14.5 67 3.7 ENE 20 30 11 16 1023.2 1023.2 0.0
15/11:30am 21.2 18.8 14.4 65 4.0 ENE 20 30 11 16 1023.6 - 0.0
15/11:00am 20.0 18.3 13.7 67 3.6 ENE 15 26 8 14 1024.2 - 0.0
15/10:30am 19.8 18.0 14.4 71 3.1 E 17 24 9 13 1024.6 - 0.0
15/10:00am 19.5 17.3 14.3 72 3.0 ENE 19 24 10 13 1024.7 - 0.0
15/09:30am 19.4 18.3 15.3 77 2.4 E 15 20 8 11 1025.0 - 0.0
15/09:00am 17.8 17.1 15.4 86 1.4 ESE 13 19 7 10 1025.0 1025.0 0.0
15/08:30am 16.7 16.4 16.5 99 0.1 ESE 13 17 7 9 1024.9 - 0.0
15/08:00am 13.2 14.2 13.2 100 0.0 CALM 0 0 0 0 1024.8 - 0.0
15/07:30am 11.4 11.1 11.4 100 0.0 ESE 4 7 2 4 1024.6 - 0.0
15/07:00am 9.2 7.0 9.2 100 0.0 S 11 13 6 7 1024.3 - 0.0
15/06:30am 9.5 7.7 9.5 100 0.0 S 9 11 5 6 1024.3 - 0.0
15/06:00am 9.7 7.6 9.7 100 0.0 S 11 13 6 7 1024.3 1024.3 0.0
15/05:30am 9.2 7.7 9.2 100 0.0 S 7 9 4 5 1024.2 - 0.0
15/05:00am 10.0 8.7 10.0 100 0.0 SSW 7 7 4 4 1024.1 - 0.0
15/04:30am 10.4 9.4 10.4 100 0.0 S 6 7 3 4 1024.1 - 0.0
15/04:00am 10.5 9.4 10.5 100 0.0 SSW 7 9 4 5 1024.1 - 0.0
15/03:30am 11.3 10.4 11.3 100 0.0 SSW 7 9 4 5 1024.0 - 0.0
15/03:00am 11.5 10.6 11.3 99 0.1 SW 7 11 4 6 1024.1 1024.1 0.0
15/02:30am 11.9 10.7 11.7 99 0.1 SW 9 11 5 6 1024.4 - 0.0
15/02:00am 12.7 12.2 12.5 99 0.1 SW 7 9 4 5 1024.6 - 0.0
15/01:30am 13.9 13.9 13.7 99 0.1 SSW 6 9 3 5 1024.8 - 0.0
15/01:00am 15.2 14.9 14.4 95 0.5 SSE 9 15 5 8 1024.8 - 0.0
15/12:30am 15.7 14.8 14.9 95 0.5 SE 13 17 7 9 1024.6 - 0.0
15/12:00am 14.6 14.3 14.3 98 0.2 E 9 15 5 8 1024.5 1024.5 0.0
 
Date/Time
CST
Temp
°C
App
Temp
°C
Dew
Point
Rel
Hum
%
Delta-T
°C
Wind Press
QNH
hPa
Press
MSL
hPa
Rain
since 9 am
mm
Dir
 
Spd
km/h
Gust
km/h
Spd
kts
Gust
kts
14/11:30pm 13.9 15.1 13.7 99 0.1 CALM 0 0 0 0 1024.6 - 0.0
14/11:00pm 12.6 13.4 12.4 99 0.1 CALM 0 0 0 0 1024.6 - 0.0
14/10:30pm 13.3 13.9 13.1 99 0.1 S 2 13 1 7 1024.6 - 0.0
14/10:00pm 13.5 12.4 13.2 98 0.2 S 11 15 6 8 1024.7 - 0.0
14/09:30pm 13.8 12.5 13.6 99 0.1 S 13 20 7 11 1024.8 - 0.0
14/09:00pm 13.6 11.8 13.4 99 0.1 S 15 19 8 10 1024.8 1024.8 0.0
14/08:30pm 13.9 11.8 13.6 98 0.2 S 17 20 9 11 1024.6 - 0.0
14/08:00pm 14.0 11.5 13.5 97 0.3 S 19 22 10 12 1024.3 - 0.0
14/07:30pm 13.2 11.6 12.7 97 0.3 S 13 17 7 9 1024.3 - 0.0
14/07:00pm 14.0 12.8 12.7 92 0.7 S 11 13 6 7 1024.3 - 0.0
14/06:30pm 15.2 13.7 13.2 88 1.1 SSE 13 19 7 10 1024.1 - 0.0
14/06:00pm 16.1 13.9 13.2 83 1.6 SSE 17 24 9 13 1024.0 1024.0 0.0
14/05:30pm 17.1 14.4 13.4 79 2.1 SE 20 30 11 16 1023.7 - 0.0
14/05:00pm 18.1 15.0 13.4 74 2.7 SSE 22 32 12 17 1023.5 - 0.0
14/04:30pm 18.2 14.2 12.9 71 3.0 SE 26 32 14 17 1023.5 - 0.0
14/04:00pm 18.8 15.0 12.3 66 3.6 SSE 24 35 13 19 1023.3 - 0.0
14/03:30pm 19.9 15.6 12.2 61 4.3 SSE 26 35 14 19 1023.4 - 0.0
14/03:00pm 19.7 15.8 12.2 62 4.2 SE 24 37 13 20 1023.4 1023.4 0.0
14/02:30pm 19.7 15.6 12.7 64 3.9 SE 26 37 14 20 1023.2 - 0.0
14/02:00pm 19.5 15.7 12.5 64 3.9 SE 24 33 13 18 1023.1 - 0.0

Other Formats:

Comma delimited format used in spreadsheet applications
http://www.bom.gov.au/fwo/IDS60801/IDS60801.95807.axf

JavaScript Object Notation format (JSON) in row-major order
http://www.bom.gov.au/fwo/IDS60801/IDS60801.95807.json